Happy Dragon — PBXI — position and weather

sailwx.info

Track history (hours):
 
Tides and Currents Weather Stations Pressure Air Temp Water Temp Dewpoint Dewpoint Depression Visibility Wind Speed Wind Dir Waves Ship Positions

Happy Dragon

Last reported at 2018-May-29 20:57 UTC. Time now 2018-Jun-20 16:44 UTC.
Position N 27°49' W 015°20'.
Warning: this ship's position is 21 days out of date.

Length 157 m; draft 7.3 m.

Type: Cargo ship. MMSI: 246661000.

Date/timePositionNaut miles runAvg speedWind from/ knotsBaromVisibWave heightAir tempDewpointWater temp
2018-May-29 20:57N 27°49' W 015°20'715.9
2018-May-29 20:30N 27°56' W 015°19'816.0
2018-May-29 20:00N 28°04' W 015°21'612.7
2018-May-29 19:30N 28°09' W 015°24'0 0.3
2018-May-29 18:59N 28°09' W 015°24'0 0.0
2018-May-29 18:29N 28°09' W 015°24'0 0.0
2018-May-29 17:59N 28°09' W 015°24'0 0.0
2018-May-29 17:29N 28°09' W 015°24'0 0.0
2018-May-29 16:59N 28°09' W 015°24'0 0.0
2018-May-29 16:29N 28°09' W 015°24'0 0.0
2018-May-29 15:59N 28°09' W 015°24'0 0.0
2018-May-29 15:20N 28°09' W 015°24'0 0.0
2018-May-29 14:50N 28°09' W 015°24'0 0.0
2018-May-29 14:20N 28°09' W 015°24'0 0.0
2018-May-29 13:50N 28°09' W 015°24'0 0.0
2018-May-29 13:23N 28°09' W 015°24'0 0.0
2018-May-29 12:53N 28°09' W 015°24'0 0.0
2018-May-29 12:23N 28°09' W 015°24'0 0.0
2018-May-29 11:11N 28°09' W 015°24'0 0.0
2018-May-29 10:53N 28°09' W 015°24'0 0.0
2018-May-29 10:26N 28°09' W 015°24'  
2018-May-26 21:59N 38°57' W 010°18'715.3
2018-May-26 21:30N 39°04' W 010°14'815.6
2018-May-26 21:00N 39°10' W 010°08'815.3
2018-May-26 20:30N 39°16' W 010°02'815.5
2018-May-26 20:00N 39°22' W 009°57'815.8
2018-May-26 19:30N 39°29' W 009°51'  
2018-May-22 18:43N 47°37' W 006°50'8014.6
2018-May-22 13:14N 48°47' W 005°52'314.7
2018-May-22 13:00N 48°50' W 005°50'713.8
2018-May-22 12:30N 48°55' W 005°42'814.0
2018-May-22 11:56N 48°60' W 005°33'613.4
2018-May-22 11:30N 49°03' W 005°25'713.5
2018-May-22 11:01N 49°06' W 005°16'713.1
2018-May-22 10:31N 49°10' W 005°08'4911.7
2018-May-22 06:20N 49°34' W 004°03'613.6
2018-May-22 05:53N 49°37' W 003°55'1713.9
2018-May-22 04:40N 49°46' W 003°32'513.8
2018-May-22 04:19N 49°48' W 003°26'413.6
2018-May-22 04:00N 49°50' W 003°20'713.3
2018-May-22 03:30N 49°53' W 003°11'612.7
2018-May-22 03:00N 49°56' W 003°03'612.2
2018-May-22 02:30N 49°59' W 002°54'611.7
2018-May-22 02:00N 50°01' W 002°45'611.1
2018-May-22 01:27N 50°02' W 002°36'610.7
2018-May-22 00:55N 50°04' W 002°27'910.4
2018-May-22 00:05N 50°06' W 002°14'110.2
2018-May-21 23:59N 50°06' W 002°13'510.4
2018-May-21 23:30N 50°07' W 002°05'510.8
2018-May-21 23:00N 50°09' W 001°57'611.3
2018-May-21 22:30N 50°10' W 001°49'612.0
2018-May-21 22:00N 50°12' W 001°40'612.8
2018-May-21 21:30N 50°14' W 001°30'713.6
2018-May-21 21:00N 50°15' W 001°20'714.3
2018-May-21 20:30N 50°17' W 001°09'815.7
2018-May-21 20:01N 50°18' W 000°57'916.5
2018-May-21 19:29N 50°21' W 000°44'816.1
2018-May-21 18:58N 50°23' W 000°31'715.9
2018-May-21 18:30N 50°25' W 000°20'815.6
2018-May-21 18:00N 50°28' W 000°09'815.4
2018-May-21 17:31N 50°30' E 000°03'815.1
2018-May-21 17:00N 50°32' E 000°14'815.3
2018-May-21 16:30N 50°34' E 000°26'714.9
2018-May-21 16:01N 50°36' E 000°37'714.9
2018-May-21 15:31N 50°41' E 000°47'714.7
2018-May-21 15:00N 50°45' E 000°56'714.8
2018-May-21 14:30N 50°49' E 001°06'815.1
2018-May-21 13:59N 50°53' E 001°16'815.8
2018-May-21 13:30N 50°59' E 001°25'917.7
2018-May-21 13:01N 51°05' E 001°34'918.1
2018-May-21 12:31N 51°12' E 001°44'917.7
2018-May-21 12:00N 51°19' E 001°51'917.7
2018-May-21 11:30N 51°27' E 001°58'916.8
2018-May-21 10:59N 51°34' E 002°07'816.3
2018-May-21 10:29N 51°40' E 002°15'815.8
2018-May-21 09:59N 51°46' E 002°23'815.3
2018-May-21 09:29N 51°52' E 002°31'715.0
2018-May-21 09:00N 51°58' E 002°39'714.6
2018-May-21 08:29N 52°03' E 002°47'1614.0
2018-May-21 07:21N 52°16' E 003°03'713.8
2018-May-21 06:52N 52°21' E 003°09'513.8
2018-May-21 06:30N 52°25' E 003°14'713.9
2018-May-21 06:00N 52°31' E 003°21'714.2
2018-May-21 05:30N 52°36' E 003°29'714.7
2018-May-21 05:00N 52°42' E 003°36'815.4
2018-May-21 04:30N 52°48' E 003°45'815.9
2018-May-21 04:00N 52°54' E 003°53'816.2
2018-May-21 03:30N 52°60' E 004°03'816.3
2018-May-21 03:00N 53°05' E 004°13'816.5
2018-May-21 02:30N 53°11' E 004°23'816.3
2018-May-21 02:00N 53°18' E 004°30'816.1
2018-May-21 01:31N 53°25' E 004°35'714.8
2018-May-21 01:00N 53°29' E 004°45'715.0
2018-May-21 00:30N 53°33' E 004°57'714.7
2018-May-21 00:00N 53°36' E 005°08'714.2
2018-May-20 23:30N 53°38' E 005°19'714.1
2018-May-20 23:00N 53°40' E 005°31'714.2
2018-May-20 22:30N 53°42' E 005°42'7515.0
2018-May-20 17:29N 53°53' E 007°48'715.3
2018-May-20 17:00N 53°51' E 008°00'816.2
2018-May-20 16:30N 53°46' E 008°11'815.5
2018-May-20 16:00N 53°41' E 008°21'713.8
2018-May-20 15:30N 53°36' E 008°30'5 9.5
2018-May-20 15:00N 53°32' E 008°34'1 1.4
2018-May-20 14:28N 53°32' E 008°35'0 0.5
2018-May-20 13:58N 53°32' E 008°35'1 3.0
2018-May-20 13:30N 53°30' E 008°35'1 1.0
2018-May-20 13:00N 53°30' E 008°35'0 0.0
2018-May-20 12:30N 53°30' E 008°35'0 0.0
2018-May-20 12:00N 53°30' E 008°35'0 0.0
2018-May-20 11:30N 53°30' E 008°35'0 0.0
2018-May-20 11:00N 53°30' E 008°35'0 0.0
2018-May-20 10:27N 53°30' E 008°35'0 0.0
2018-May-20 10:00N 53°30' E 008°35'0 0.0
2018-May-20 09:30N 53°30' E 008°35'0 0.0
2018-May-20 09:00N 53°30' E 008°35'0 0.0
2018-May-20 08:30N 53°30' E 008°35'0 0.0
2018-May-20 08:00N 53°30' E 008°35'0 0.0
2018-May-20 07:30N 53°30' E 008°35'0 0.0
2018-May-20 07:00N 53°30' E 008°35'0 0.0
2018-May-20 06:30N 53°30' E 008°35'0 0.0
2018-May-20 06:00N 53°30' E 008°35'0 0.0
2018-May-20 05:30N 53°30' E 008°35'0 0.0
2018-May-20 05:00N 53°30' E 008°35'0 0.0
2018-May-20 04:30N 53°30' E 008°35'0 0.0
2018-May-20 04:00N 53°30' E 008°35'0 0.0
2018-May-20 03:30N 53°30' E 008°35'0 0.0
2018-May-20 03:00N 53°30' E 008°35'0 0.0
2018-May-20 02:30N 53°30' E 008°35'0 0.0
2018-May-20 02:00N 53°30' E 008°35'0 0.0
2018-May-20 01:27N 53°30' E 008°35'0 0.0
2018-May-20 00:57N 53°30' E 008°35'0 0.0
2018-May-20 00:30N 53°30' E 008°35'0 0.0
2018-May-20 00:00N 53°30' E 008°35'0 0.0
2018-May-19 23:30N 53°30' E 008°35'0 0.0
2018-May-19 23:00N 53°30' E 008°35'0 0.0
2018-May-19 22:30N 53°30' E 008°35'0 0.0
2018-May-19 22:00N 53°30' E 008°35'0 0.0
2018-May-19 21:30N 53°30' E 008°35'0 0.0
2018-May-19 21:00N 53°30' E 008°35'  
Track history (hours):
 
Tides and Currents Weather Stations Pressure Air Temp Water Temp Dewpoint Dewpoint Depression Visibility Wind Speed Wind Dir Waves Ship Positions

Happy Dragon

Last reported at 2018-May-29 20:57 UTC. Time now 2018-Jun-20 16:44 UTC.
Position N 27°49' W 015°20'.
Warning: this ship's position is 21 days out of date.

Length 157 m; draft 7.3 m.

Type: Cargo ship. MMSI: 246661000.

Date/timePositionNaut miles runAvg speedWind from/ knotsBaromVisibWave heightAir tempDewpointWater temp
2018-May-29 20:57N 27°49' W 015°20'715.9
2018-May-29 20:30N 27°56' W 015°19'816.0
2018-May-29 20:00N 28°04' W 015°21'612.7
2018-May-29 19:30N 28°09' W 015°24'0 0.3
2018-May-29 18:59N 28°09' W 015°24'0 0.0
2018-May-29 18:29N 28°09' W 015°24'0 0.0
2018-May-29 17:59N 28°09' W 015°24'0 0.0
2018-May-29 17:29N 28°09' W 015°24'0 0.0
2018-May-29 16:59N 28°09' W 015°24'0 0.0
2018-May-29 16:29N 28°09' W 015°24'0 0.0
2018-May-29 15:59N 28°09' W 015°24'0 0.0
2018-May-29 15:20N 28°09' W 015°24'0 0.0
2018-May-29 14:50N 28°09' W 015°24'0 0.0
2018-May-29 14:20N 28°09' W 015°24'0 0.0
2018-May-29 13:50N 28°09' W 015°24'0 0.0
2018-May-29 13:23N 28°09' W 015°24'0 0.0
2018-May-29 12:53N 28°09' W 015°24'0 0.0
2018-May-29 12:23N 28°09' W 015°24'0 0.0
2018-May-29 11:11N 28°09' W 015°24'0 0.0
2018-May-29 10:53N 28°09' W 015°24'0 0.0
2018-May-29 10:26N 28°09' W 015°24'  
2018-May-26 21:59N 38°57' W 010°18'715.3
2018-May-26 21:30N 39°04' W 010°14'815.6
2018-May-26 21:00N 39°10' W 010°08'815.3
2018-May-26 20:30N 39°16' W 010°02'815.5
2018-May-26 20:00N 39°22' W 009°57'815.8
2018-May-26 19:30N 39°29' W 009°51'  
2018-May-22 18:43N 47°37' W 006°50'8014.6
2018-May-22 13:14N 48°47' W 005°52'314.7
2018-May-22 13:00N 48°50' W 005°50'713.8
2018-May-22 12:30N 48°55' W 005°42'814.0
2018-May-22 11:56N 48°60' W 005°33'613.4
2018-May-22 11:30N 49°03' W 005°25'713.5
2018-May-22 11:01N 49°06' W 005°16'713.1
2018-May-22 10:31N 49°10' W 005°08'4911.7
2018-May-22 06:20N 49°34' W 004°03'613.6
2018-May-22 05:53N 49°37' W 003°55'1713.9
2018-May-22 04:40N 49°46' W 003°32'513.8
2018-May-22 04:19N 49°48' W 003°26'413.6
2018-May-22 04:00N 49°50' W 003°20'713.3
2018-May-22 03:30N 49°53' W 003°11'612.7
2018-May-22 03:00N 49°56' W 003°03'612.2
2018-May-22 02:30N 49°59' W 002°54'611.7
2018-May-22 02:00N 50°01' W 002°45'611.1
2018-May-22 01:27N 50°02' W 002°36'610.7
2018-May-22 00:55N 50°04' W 002°27'910.4
2018-May-22 00:05N 50°06' W 002°14'110.2
2018-May-21 23:59N 50°06' W 002°13'510.4
2018-May-21 23:30N 50°07' W 002°05'510.8
2018-May-21 23:00N 50°09' W 001°57'611.3
2018-May-21 22:30N 50°10' W 001°49'612.0
2018-May-21 22:00N 50°12' W 001°40'612.8
2018-May-21 21:30N 50°14' W 001°30'713.6
2018-May-21 21:00N 50°15' W 001°20'714.3
2018-May-21 20:30N 50°17' W 001°09'815.7
2018-May-21 20:01N 50°18' W 000°57'916.5
2018-May-21 19:29N 50°21' W 000°44'816.1
2018-May-21 18:58N 50°23' W 000°31'715.9
2018-May-21 18:30N 50°25' W 000°20'815.6
2018-May-21 18:00N 50°28' W 000°09'815.4
2018-May-21 17:31N 50°30' E 000°03'815.1
2018-May-21 17:00N 50°32' E 000°14'815.3
2018-May-21 16:30N 50°34' E 000°26'714.9
2018-May-21 16:01N 50°36' E 000°37'714.9
2018-May-21 15:31N 50°41' E 000°47'714.7
2018-May-21 15:00N 50°45' E 000°56'714.8
2018-May-21 14:30N 50°49' E 001°06'815.1
2018-May-21 13:59N 50°53' E 001°16'815.8
2018-May-21 13:30N 50°59' E 001°25'917.7
2018-May-21 13:01N 51°05' E 001°34'918.1
2018-May-21 12:31N 51°12' E 001°44'917.7
2018-May-21 12:00N 51°19' E 001°51'917.7
2018-May-21 11:30N 51°27' E 001°58'916.8
2018-May-21 10:59N 51°34' E 002°07'816.3
2018-May-21 10:29N 51°40' E 002°15'815.8
2018-May-21 09:59N 51°46' E 002°23'815.3
2018-May-21 09:29N 51°52' E 002°31'715.0
2018-May-21 09:00N 51°58' E 002°39'714.6
2018-May-21 08:29N 52°03' E 002°47'1614.0
2018-May-21 07:21N 52°16' E 003°03'713.8
2018-May-21 06:52N 52°21' E 003°09'513.8
2018-May-21 06:30N 52°25' E 003°14'713.9
2018-May-21 06:00N 52°31' E 003°21'714.2
2018-May-21 05:30N 52°36' E 003°29'714.7
2018-May-21 05:00N 52°42' E 003°36'815.4
2018-May-21 04:30N 52°48' E 003°45'815.9
2018-May-21 04:00N 52°54' E 003°53'816.2
2018-May-21 03:30N 52°60' E 004°03'816.3
2018-May-21 03:00N 53°05' E 004°13'816.5
2018-May-21 02:30N 53°11' E 004°23'816.3
2018-May-21 02:00N 53°18' E 004°30'816.1
2018-May-21 01:31N 53°25' E 004°35'714.8
2018-May-21 01:00N 53°29' E 004°45'715.0
2018-May-21 00:30N 53°33' E 004°57'714.7
2018-May-21 00:00N 53°36' E 005°08'714.2
2018-May-20 23:30N 53°38' E 005°19'714.1
2018-May-20 23:00N 53°40' E 005°31'714.2
2018-May-20 22:30N 53°42' E 005°42'7515.0
2018-May-20 17:29N 53°53' E 007°48'715.3
2018-May-20 17:00N 53°51' E 008°00'816.2
2018-May-20 16:30N 53°46' E 008°11'815.5
2018-May-20 16:00N 53°41' E 008°21'713.8
2018-May-20 15:30N 53°36' E 008°30'5 9.5
2018-May-20 15:00N 53°32' E 008°34'1 1.4
2018-May-20 14:28N 53°32' E 008°35'0 0.5
2018-May-20 13:58N 53°32' E 008°35'1 3.0
2018-May-20 13:30N 53°30' E 008°35'1 1.0
2018-May-20 13:00N 53°30' E 008°35'0 0.0
2018-May-20 12:30N 53°30' E 008°35'0 0.0
2018-May-20 12:00N 53°30' E 008°35'0 0.0
2018-May-20 11:30N 53°30' E 008°35'0 0.0
2018-May-20 11:00N 53°30' E 008°35'0 0.0
2018-May-20 10:27N 53°30' E 008°35'0 0.0
2018-May-20 10:00N 53°30' E 008°35'0 0.0
2018-May-20 09:30N 53°30' E 008°35'0 0.0
2018-May-20 09:00N 53°30' E 008°35'0 0.0
2018-May-20 08:30N 53°30' E 008°35'0 0.0
2018-May-20 08:00N 53°30' E 008°35'0 0.0
2018-May-20 07:30N 53°30' E 008°35'0 0.0
2018-May-20 07:00N 53°30' E 008°35'0 0.0
2018-May-20 06:30N 53°30' E 008°35'0 0.0
2018-May-20 06:00N 53°30' E 008°35'0 0.0
2018-May-20 05:30N 53°30' E 008°35'0 0.0
2018-May-20 05:00N 53°30' E 008°35'0 0.0
2018-May-20 04:30N 53°30' E 008°35'0 0.0
2018-May-20 04:00N 53°30' E 008°35'0 0.0
2018-May-20 03:30N 53°30' E 008°35'0 0.0
2018-May-20 03:00N 53°30' E 008°35'0 0.0
2018-May-20 02:30N 53°30' E 008°35'0 0.0
2018-May-20 02:00N 53°30' E 008°35'0 0.0
2018-May-20 01:27N 53°30' E 008°35'0 0.0
2018-May-20 00:57N 53°30' E 008°35'0 0.0
2018-May-20 00:30N 53°30' E 008°35'0 0.0
2018-May-20 00:00N 53°30' E 008°35'0 0.0
2018-May-19 23:30N 53°30' E 008°35'0 0.0
2018-May-19 23:00N 53°30' E 008°35'0 0.0
2018-May-19 22:30N 53°30' E 008°35'0 0.0
2018-May-19 22:00N 53°30' E 008°35'0 0.0
2018-May-19 21:30N 53°30' E 008°35'0 0.0
2018-May-19 21:00N 53°30' E 008°35'  

Dump ship's entire track history